Time;durP1;ratioP1;P1;durP2;ratioP2;P2;SDS_P1;SDS_P2;PMS_P1;PMS_P2;Temp;Humidity;BMP_temperature;BMP_pressure;BME280_temperature;BME280_humidity;BME280_pressure;Samples;Min_cycle;Max_cycle;Signal;HPM_P1;HPM_P2
2023/03/11 00:02:08;;;;;;;9.37;2.00;;;;;;;0.00;86.46;100592.34;5034734;28;20038;-57
2023/03/11 00:04:34;;;;;;;8.70;1.90;;;;;;;-0.11;87.91;100597.41;5028325;28;20035;-58
2023/03/11 00:06:59;;;;;;;8.33;2.43;;;;;;;-0.13;87.02;100597.47;5032685;28;20069;-57
2023/03/11 00:09:24;;;;;;;9.33;2.00;;;;;;;-0.17;87.69;100599.44;5031235;28;20366;-59
2023/03/11 00:11:50;;;;;;;11.93;2.00;;;;;;;-0.17;86.49;100602.06;5034845;28;20033;-58
2023/03/11 00:14:15;;;;;;;9.17;2.27;;;;;;;-0.25;87.31;100596.47;5028590;28;20037;-58
2023/03/11 00:16:40;;;;;;;8.90;2.30;;;;;;;-0.31;88.30;100599.47;5034184;28;20036;-57
2023/03/11 00:19:06;;;;;;;7.50;2.10;;;;;;;-0.39;90.13;100605.19;5034604;28;20030;-58
2023/03/11 00:21:31;;;;;;;14.37;2.70;;;;;;;-0.48;90.70;100601.38;5032388;28;20033;-58
2023/03/11 00:23:59;;;;;;;9.40;2.10;;;;;;;-0.53;92.30;100608.66;5030549;28;20033;-58
2023/03/11 00:26:25;;;;;;;10.30;2.40;;;;;;;-0.56;92.53;100611.44;5028104;28;20037;-58
2023/03/11 00:28:51;;;;;;;10.30;2.63;;;;;;;-0.59;93.40;100614.25;5017522;28;20033;-58
2023/03/11 00:31:16;;;;;;;10.53;2.33;;;;;;;-0.60;93.12;100623.00;5032182;28;20039;-58
2023/03/11 00:33:42;;;;;;;8.97;2.33;;;;;;;-0.62;92.72;100624.81;5024548;28;20064;-57
2023/03/11 00:36:27;;;;;;;11.00;2.60;;;;;;;-0.59;93.22;100624.66;5040298;28;20033;-57
2023/03/11 00:38:53;;;;;;;10.00;2.63;;;;;;;-0.63;92.29;100630.97;5030423;28;20026;-58
2023/03/11 00:41:18;;;;;;;10.83;3.20;;;;;;;-0.73;93.04;100634.13;5030990;28;20037;-57
2023/03/11 00:43:43;;;;;;;13.53;3.20;;;;;;;-0.76;93.85;100633.47;5031284;28;20029;-57
2023/03/11 00:46:09;;;;;;;12.07;3.00;;;;;;;-0.82;94.44;100640.75;5022526;28;20079;-58
2023/03/11 00:48:34;;;;;;;12.17;3.07;;;;;;;-0.82;94.33;100642.50;5032859;28;20053;-58
2023/03/11 00:50:59;;;;;;;12.30;2.80;;;;;;;-0.84;94.70;100636.56;5022350;28;20042;-57
2023/03/11 00:53:25;;;;;;;7.33;2.90;;;;;;;-0.83;94.51;100638.25;5027179;28;20049;-58
2023/03/11 00:55:50;;;;;;;11.90;3.73;;;;;;;-0.85;94.09;100640.94;5028518;28;20041;-57
2023/03/11 00:58:15;;;;;;;17.07;4.07;;;;;;;-0.90;95.07;100648.16;5029738;28;20112;-58
2023/03/11 01:00:41;;;;;;;18.80;5.03;;;;;;;-0.90;95.16;100652.56;5029631;28;20100;-57
2023/03/11 01:03:06;;;;;;;17.67;4.97;;;;;;;-0.96;95.74;100654.59;5034707;28;20021;-57
2023/03/11 01:05:33;;;;;;;14.07;4.17;;;;;;;-0.98;97.00;100656.44;5035541;28;20032;-57
2023/03/11 01:07:58;;;;;;;12.47;3.50;;;;;;;-0.98;97.71;100661.63;5031229;28;21881;-58
2023/03/11 01:10:24;;;;;;;11.50;2.90;;;;;;;-0.94;97.16;100672.69;5039790;28;20026;-57
2023/03/11 01:12:50;;;;;;;16.23;3.50;;;;;;;-0.92;96.93;100675.22;5027591;28;20038;-58
2023/03/11 01:15:19;;;;;;;14.37;3.53;;;;;;;-0.91;97.49;100679.50;5023724;28;20112;-58
2023/03/11 01:17:44;;;;;;;11.13;2.93;;;;;;;-0.90;97.40;100673.38;5040243;28;20409;-58
2023/03/11 01:20:11;;;;;;;11.17;3.40;;;;;;;-0.88;96.79;100676.72;5029925;28;20032;-58
2023/03/11 01:22:36;;;;;;;6.80;2.57;;;;;;;-0.90;97.67;100676.00;5031756;28;20022;-58
2023/03/11 01:25:02;;;;;;;10.87;2.77;;;;;;;-0.93;98.39;100686.56;5023726;28;20112;-58
2023/03/11 01:27:27;;;;;;;7.50;2.70;;;;;;;-0.95;97.83;100684.91;5030538;28;20116;-56
2023/03/11 01:29:53;;;;;;;9.63;2.60;;;;;;;-0.92;96.56;100677.81;5025212;28;20608;-58
2023/03/11 01:32:18;;;;;;;12.57;2.80;;;;;;;-0.93;96.77;100684.81;5027873;28;20034;-57
2023/03/11 01:34:43;;;;;;;12.07;2.80;;;;;;;-0.96;97.39;100684.97;5039438;28;20038;-57
2023/03/11 01:37:09;;;;;;;9.67;2.83;;;;;;;-1.00;98.43;100679.13;5029588;28;20033;-58
2023/03/11 01:39:34;;;;;;;9.87;2.80;;;;;;;-1.00;98.26;100684.31;5025138;28;20029;-58
2023/03/11 01:41:59;;;;;;;13.60;3.23;;;;;;;-1.01;98.58;100677.44;5038033;28;20033;-57
2023/03/11 01:44:25;;;;;;;10.00;2.70;;;;;;;-1.01;98.55;100680.06;5029771;28;20031;-58
2023/03/11 01:46:50;;;;;;;11.37;2.63;;;;;;;-0.99;97.77;100691.19;5034645;28;20468;-57
2023/03/11 01:49:16;;;;;;;12.90;2.90;;;;;;;-0.98;97.12;100686.84;5021084;28;20095;-57
2023/03/11 01:51:44;;;;;;;10.43;2.70;;;;;;;-0.99;97.06;100686.00;5024676;28;20549;-57
2023/03/11 01:54:30;;;;;;;11.27;3.00;;;;;;;-0.93;97.08;100689.16;5027162;28;20071;-58
2023/03/11 01:56:57;;;;;;;11.43;2.83;;;;;;;-0.95;97.45;100686.66;5026212;28;20018;-58
2023/03/11 01:59:26;;;;;;;10.93;2.80;;;;;;;-0.98;97.16;100679.84;5017706;28;20042;-56
2023/03/11 02:02:03;;;;;;;13.10;2.80;;;;;;;-0.99;97.41;100688.59;5031339;28;20033;-58
2023/03/11 02:04:29;;;;;;;9.93;2.80;;;;;;;-0.97;97.03;100685.91;5030905;28;20033;-57
2023/03/11 02:06:56;;;;;;;10.50;2.80;;;;;;;-0.96;96.72;100696.25;5029931;28;20040;-56
2023/03/11 02:09:23;;;;;;;10.07;2.63;;;;;;;-0.95;96.78;100687.50;5026658;28;20483;-57
2023/03/11 02:11:49;;;;;;;11.20;2.93;;;;;;;-1.00;96.70;100680.88;5032929;28;20060;-58
2023/03/11 02:14:15;;;;;;;13.40;2.87;;;;;;;-0.98;96.79;100682.47;5019421;28;20033;-57
2023/03/11 02:16:40;;;;;;;11.33;2.77;;;;;;;-0.96;97.01;100684.97;5029517;28;20033;-58
2023/03/11 02:19:20;;;;;;;10.77;2.80;;;;;;;-0.95;97.20;100682.28;5028412;28;20083;-58
2023/03/11 02:21:46;;;;;;;8.57;3.20;;;;;;;-0.96;96.88;100691.03;5031447;28;20029;-57
2023/03/11 02:24:24;;;;;;;15.20;3.07;;;;;;;-0.96;97.02;100691.03;5034370;28;20346;-57
2023/03/11 02:26:54;;;;;;;15.00;3.60;;;;;;;-0.96;96.88;100691.03;5038055;28;20108;-57
2023/03/11 02:29:20;;;;;;;10.17;3.20;;;;;;;-0.96;96.72;100701.44;5026280;28;20032;-57
2023/03/11 02:31:48;;;;;;;11.13;2.87;;;;;;;-1.01;96.62;100693.06;5032763;28;20388;-57
2023/03/11 02:34:22;;;;;;;13.23;3.20;;;;;;;-1.04;96.78;100684.59;5033759;28;20044;-58
2023/03/11 02:36:47;;;;;;;11.73;3.07;;;;;;;-0.99;96.44;100696.41;5033758;28;20063;-57
2023/03/11 02:39:12;;;;;;;10.67;3.10;;;;;;;-1.00;96.31;100694.75;5027482;28;20049;-57
2023/03/11 02:41:43;;;;;;;15.57;3.40;;;;;;;-1.05;96.20;100685.53;5043013;28;20400;-59
2023/03/11 02:44:12;;;;;;;10.70;3.03;;;;;;;-1.07;96.51;100690.81;5026947;28;20043;-57
2023/03/11 02:46:40;;;;;;;14.40;3.30;;;;;;;-1.08;96.16;100692.56;5031320;28;20037;-58
2023/03/11 02:49:05;;;;;;;10.93;3.30;;;;;;;-1.06;96.58;100692.50;5023885;28;20045;-59
2023/03/11 02:51:31;;;;;;;15.23;3.50;;;;;;;-1.06;96.48;100692.50;5031858;28;20091;-57
2023/03/11 02:54:01;;;;;;;13.30;3.00;;;;;;;-1.11;96.42;100691.91;5033419;28;20035;-58
2023/03/11 02:56:27;;;;;;;12.97;2.90;;;;;;;-1.13;96.86;100683.38;5035857;28;20064;-58
2023/03/11 02:58:52;;;;;;;13.37;3.03;;;;;;;-1.13;97.03;100688.56;5043439;28;20051;-57
2023/03/11 03:01:19;;;;;;;11.17;3.10;;;;;;;-1.13;96.91;100688.56;5034149;28;20065;-58
2023/03/11 03:03:44;;;;;;;10.60;3.07;;;;;;;-1.13;96.87;100680.78;5020497;28;20085;-57
2023/03/11 03:06:10;;;;;;;11.13;3.30;;;;;;;-1.16;97.46;100692.19;5027279;28;20029;-58
2023/03/11 03:08:35;;;;;;;16.90;3.30;;;;;;;-1.19;97.42;100688.94;5030393;28;20096;-57
2023/03/11 03:11:02;;;;;;;11.73;3.53;;;;;;;-1.25;97.18;100688.34;5024127;28;20593;-58
2023/03/11 03:13:28;;;;;;;12.87;3.30;;;;;;;-1.20;96.74;100703.69;5022257;28;20030;-58
2023/03/11 03:15:54;;;;;;;14.60;3.63;;;;;;;-1.20;97.82;100697.69;5025424;28;20037;-56
2023/03/11 03:18:19;;;;;;;11.60;3.30;;;;;;;-1.24;96.84;100708.25;5032613;28;20041;-57
2023/03/11 03:20:44;;;;;;;9.80;3.17;;;;;;;-1.24;97.64;100712.59;5033344;28;20033;-58
2023/03/11 03:23:10;;;;;;;14.10;3.80;;;;;;;-1.26;97.71;100715.31;5031602;28;20116;-58
2023/03/11 03:25:35;;;;;;;10.77;3.30;;;;;;;-1.28;97.41;100722.34;5026146;28;20040;-57
2023/03/11 03:28:00;;;;;;;6.00;3.03;;;;;;;-1.30;98.17;100719.00;5030559;28;20041;-58
2023/03/11 03:30:28;;;;;;;9.63;2.97;;;;;;;-1.31;97.45;100729.50;5031198;28;20033;-58
2023/03/11 03:32:53;;;;;;;12.90;3.20;;;;;;;-1.33;97.39;100739.16;5039227;28;20366;-57
2023/03/11 03:35:19;;;;;;;9.57;3.40;;;;;;;-1.42;97.81;100735.31;5023966;28;20040;-57
2023/03/11 03:37:44;;;;;;;9.93;3.00;;;;;;;-1.44;98.08;100744.97;5032133;28;20053;-57
2023/03/11 03:40:10;;;;;;;8.03;2.90;;;;;;;-1.46;99.00;100749.41;5021209;28;20101;-57
2023/03/11 03:42:37;;;;;;;5.73;2.77;;;;;;;-1.50;98.70;100749.59;5032759;28;20025;-57
2023/03/11 03:45:03;;;;;;;9.20;2.90;;;;;;;-1.49;99.12;100748.66;5027505;28;20053;-58
2023/03/11 03:47:31;;;;;;;13.03;3.13;;;;;;;-1.52;99.00;100743.59;5031968;28;20041;-57
2023/03/11 03:49:56;;;;;;;10.20;3.00;;;;;;;-1.44;99.59;100757.97;5027770;28;20489;-57
2023/03/11 03:52:21;;;;;;;17.17;3.37;;;;;;;-1.46;100.00;100754.59;5038712;28;20109;-58
2023/03/11 03:54:47;;;;;;;12.20;3.47;;;;;;;-1.47;99.80;100758.13;5031421;28;20056;-58
2023/03/11 03:57:12;;;;;;;12.57;3.30;;;;;;;-1.51;99.67;100758.31;5034808;28;20032;-57
2023/03/11 03:59:38;;;;;;;10.37;3.20;;;;;;;-1.53;100.00;100760.16;5030917;28;20128;-57
2023/03/11 04:02:04;;;;;;;8.27;3.10;;;;;;;-1.52;100.00;100759.22;5045496;28;20113;-57
2023/03/11 04:04:29;;;;;;;12.10;3.20;;;;;;;-1.54;100.00;100763.69;5024647;28;20037;-57
2023/03/11 04:06:55;;;;;;;13.17;3.50;;;;;;;-1.59;100.00;100765.69;5035020;28;20037;-60
2023/03/11 04:09:20;;;;;;;15.80;3.73;;;;;;;-1.58;100.00;100767.34;5025956;28;20037;-58
2023/03/11 04:11:46;;;;;;;7.70;3.57;;;;;;;-1.57;100.00;100773.41;5026249;28;20604;-57
2023/03/11 04:14:11;;;;;;;10.47;3.40;;;;;;;-1.54;100.00;100774.06;5028482;28;20108;-58
2023/03/11 04:16:37;;;;;;;9.90;3.17;;;;;;;-1.56;100.00;100768.13;5036897;28;20160;-57
2023/03/11 04:19:04;;;;;;;10.03;3.37;;;;;;;-1.56;100.00;100770.72;5035697;28;20489;-59
2023/03/11 04:21:30;;;;;;;11.87;3.70;;;;;;;-1.56;100.00;100775.94;5032334;28;20044;-57
2023/03/11 04:23:55;;;;;;;15.50;3.70;;;;;;;-1.55;100.00;100771.56;5027342;28;20045;-59
2023/03/11 04:26:20;;;;;;;10.87;4.20;;;;;;;-1.61;100.00;100764.94;5046073;28;20033;-57
2023/03/11 04:28:45;;;;;;;10.67;3.47;;;;;;;-1.64;100.00;100772.91;5032641;28;20041;-58
2023/03/11 04:31:11;;;;;;;11.70;3.23;;;;;;;-1.64;100.00;100778.09;5030572;28;20029;-57
2023/03/11 04:33:36;;;;;;;15.77;3.70;;;;;;;-1.65;100.00;100777.28;5029797;28;20109;-57
2023/03/11 04:36:07;;;;;;;10.40;3.60;;;;;;;-1.68;100.00;100787.00;5028156;28;20061;-57
2023/03/11 04:38:32;;;;;;;11.27;3.33;;;;;;;-1.71;100.00;100784.56;5032281;28;20099;-57
2023/03/11 04:41:02;;;;;;;14.50;3.53;;;;;;;-1.73;100.00;100781.22;5030156;28;20389;-57
2023/03/11 04:43:27;;;;;;;9.23;3.30;;;;;;;-1.72;100.00;100788.09;5031245;28;20099;-58
2023/03/11 04:45:53;;;;;;;9.37;3.43;;;;;;;-1.72;100.00;100780.28;5026399;28;20030;-57
2023/03/11 04:48:18;;;;;;;9.30;3.30;;;;;;;-1.72;100.00;100786.34;5026404;28;20054;-57
2023/03/11 04:50:44;;;;;;;12.47;3.93;;;;;;;-1.76;100.00;100780.44;5016495;28;20033;-56
2023/03/11 04:53:09;;;;;;;11.40;3.30;;;;;;;-1.74;100.00;100782.97;5027408;28;20042;-57
2023/03/11 04:55:34;;;;;;;10.30;3.10;;;;;;;-1.69;100.00;100785.31;5027525;28;20026;-57
2023/03/11 04:58:00;;;;;;;12.70;3.33;;;;;;;-1.75;100.00;100776.09;5027415;28;20369;-58
2023/03/11 05:00:25;;;;;;;10.87;3.20;;;;;;;-1.73;100.00;100773.41;5024653;28;20041;-57
2023/03/11 05:02:51;;;;;;;10.93;3.33;;;;;;;-1.76;100.00;100780.44;5030188;28;20022;-57
2023/03/11 05:05:18;;;;;;;10.43;3.10;;;;;;;-1.73;100.00;100779.44;5031509;28;20022;-58
2023/03/11 05:07:43;;;;;;;11.43;3.10;;;;;;;-1.74;100.00;100782.13;5021477;28;20602;-57
2023/03/11 05:10:09;;;;;;;12.77;3.40;;;;;;;-1.77;100.00;100789.16;5028441;28;20025;-57
2023/03/11 05:12:35;;;;;;;7.50;3.23;;;;;;;-1.78;100.00;100787.50;5029926;28;20500;-57
2023/03/11 05:15:00;;;;;;;13.83;3.33;;;;;;;-1.80;100.00;100793.69;5025232;28;20026;-58
2023/03/11 05:17:25;;;;;;;11.37;3.30;;;;;;;-1.82;100.00;100791.16;5032169;28;20034;-57
2023/03/11 05:19:52;;;;;;;9.03;3.07;;;;;;;-1.85;100.00;100801.75;5030489;28;20551;-58
2023/03/11 05:22:19;;;;;;;12.73;3.07;;;;;;;-1.85;100.00;100800.91;5028412;28;20151;-58
2023/03/11 05:24:45;;;;;;;10.57;3.37;;;;;;;-1.86;100.00;100800.06;5017725;28;20029;-57
2023/03/11 05:27:11;;;;;;;10.60;4.03;;;;;;;-1.85;100.00;100801.75;5034961;28;20029;-58
2023/03/11 05:29:36;;;;;;;10.97;3.73;;;;;;;-1.86;100.00;100815.66;5030994;28;20481;-57
2023/03/11 05:32:01;;;;;;;9.57;3.40;;;;;;;-1.89;100.00;100805.41;5028967;28;20077;-57
2023/03/11 05:34:27;;;;;;;10.57;3.47;;;;;;;-1.93;100.00;100824.72;5036532;28;20504;-58
2023/03/11 05:36:52;;;;;;;10.33;3.60;;;;;;;-1.96;100.00;100822.25;5036894;28;20065;-58
2023/03/11 05:39:17;;;;;;;15.87;4.03;;;;;;;-1.99;100.00;100819.84;5026019;28;20021;-57
2023/03/11 05:41:43;;;;;;;8.23;3.27;;;;;;;-2.00;100.00;100823.34;5022424;28;20033;-58
2023/03/11 05:44:08;;;;;;;12.50;3.70;;;;;;;-2.02;100.00;100826.03;5031228;28;20033;-57
2023/03/11 05:46:33;;;;;;;9.13;3.77;;;;;;;-2.03;100.00;100830.38;5020694;28;20060;-58
2023/03/11 05:48:59;;;;;;;12.57;3.70;;;;;;;-1.99;100.00;100819.84;5023308;28;20242;-57
2023/03/11 05:51:24;;;;;;;8.10;3.30;;;;;;;-2.01;100.00;100826.84;5030846;28;20091;-57
2023/03/11 05:53:50;;;;;;;12.73;3.60;;;;;;;-2.00;100.00;100833.72;5039182;28;20026;-57
2023/03/11 05:56:17;;;;;;;11.63;3.40;;;;;;;-2.03;100.00;100835.59;5026317;28;20516;-58
2023/03/11 05:58:43;;;;;;;9.50;3.47;;;;;;;-2.03;100.00;100826.94;5040492;28;20036;-57
2023/03/11 06:01:14;;;;;;;10.93;3.67;;;;;;;-2.05;100.00;100834.84;5027543;28;20030;-59
2023/03/11 06:03:40;;;;;;;11.97;3.70;;;;;;;-2.03;100.00;100838.19;5035138;28;20032;-59
2023/03/11 06:06:08;;;;;;;12.43;3.50;;;;;;;-2.07;100.00;100844.44;5018396;28;20117;-58
2023/03/11 06:08:34;;;;;;;11.77;3.47;;;;;;;-2.09;100.00;100838.50;5026258;28;20040;-58
2023/03/11 06:11:04;;;;;;;10.80;3.80;;;;;;;-2.09;100.00;100848.03;5022314;28;20045;-57
2023/03/11 06:13:30;;;;;;;15.07;3.97;;;;;;;-2.10;100.00;100855.00;5027177;28;20040;-58
2023/03/11 06:15:55;;;;;;;13.90;3.90;;;;;;;-2.16;100.00;100850.13;5032603;28;20037;-57
2023/03/11 06:18:21;;;;;;;8.70;3.43;;;;;;;-2.16;100.00;100850.13;5027676;28;20034;-58
2023/03/11 06:20:46;;;;;;;9.50;3.50;;;;;;;-2.16;100.00;100850.13;5023509;28;20043;-58
2023/03/11 06:23:12;;;;;;;12.67;3.70;;;;;;;-2.19;100.00;100865.88;5028591;28;20401;-58
2023/03/11 06:25:37;;;;;;;12.77;3.70;;;;;;;-2.20;100.00;100870.25;5025151;28;20033;-58
2023/03/11 06:28:03;;;;;;;13.63;3.70;;;;;;;-2.18;100.00;100864.94;5016853;28;20444;-57
2023/03/11 06:30:28;;;;;;;8.03;3.57;;;;;;;-2.16;100.00;100876.13;5026255;28;20034;-57
2023/03/11 06:32:53;;;;;;;13.40;4.00;;;;;;;-2.16;100.00;100863.13;5024226;28;20034;-57
2023/03/11 06:35:19;;;;;;;15.30;4.50;;;;;;;-2.17;100.00;100870.06;5025508;28;20054;-57
2023/03/11 06:37:44;;;;;;;13.83;3.67;;;;;;;-2.16;100.00;100866.53;5024504;28;20032;-58
2023/03/11 06:40:10;;;;;;;9.53;3.80;;;;;;;-2.11;100.00;100883.66;5017184;28;20030;-58
2023/03/11 06:42:35;;;;;;;10.80;4.00;;;;;;;-2.09;100.00;100879.22;5027768;28;20377;-59
2023/03/11 06:45:01;;;;;;;8.80;3.43;;;;;;;-2.08;100.00;100883.53;5027227;28;20168;-57
2023/03/11 06:47:26;;;;;;;11.07;3.60;;;;;;;-2.05;100.00;100897.19;5028013;28;22199;-58
2023/03/11 06:49:52;;;;;;;10.80;3.70;;;;;;;-2.00;100.00;100896.09;5021029;28;20060;-58
2023/03/11 06:52:17;;;;;;;14.17;3.93;;;;;;;-1.98;100.00;100902.09;5018603;28;20033;-58
2023/03/11 06:54:43;;;;;;;7.93;3.60;;;;;;;-1.93;100.00;100902.69;5024013;28;20040;-58
2023/03/11 06:57:09;;;;;;;11.47;3.50;;;;;;;-1.90;100.00;100912.91;5020832;28;20109;-58
2023/03/11 06:59:34;;;;;;;8.83;3.43;;;;;;;-1.83;100.00;100919.47;5021275;28;20032;-57
2023/03/11 07:02:01;;;;;;;9.70;3.40;;;;;;;-1.79;100.00;100921.00;5024332;28;20037;-58
2023/03/11 07:04:26;;;;;;;10.60;3.40;;;;;;;-1.74;100.00;100928.56;5021424;28;20076;-58
2023/03/11 07:06:53;;;;;;;10.50;3.60;;;;;;;-1.70;100.00;100931.84;5027118;28;20426;-58
2023/03/11 07:09:21;;;;;;;15.77;3.83;;;;;;;-1.62;100.00;100940.09;5024796;28;20034;-57
2023/03/11 07:11:46;;;;;;;11.40;3.70;;;;;;;-1.58;100.00;100932.97;5024237;28;20030;-58
2023/03/11 07:14:11;;;;;;;9.63;3.40;;;;;;;-1.51;100.00;100939.53;5026690;28;20049;-57
2023/03/11 07:16:37;;;;;;;10.10;3.70;;;;;;;-1.49;100.00;100932.47;5025779;28;20026;-58
2023/03/11 07:19:03;;;;;;;11.27;3.40;;;;;;;-1.50;100.00;100934.25;5017903;28;20088;-57
2023/03/11 07:21:30;;;;;;;11.03;3.40;;;;;;;-1.47;100.00;100941.06;5025027;28;20033;-57
2023/03/11 07:23:58;;;;;;;12.67;3.80;;;;;;;-1.43;100.00;100941.75;5023323;28;20057;-58
2023/03/11 07:26:25;;;;;;;9.40;3.50;;;;;;;-1.37;100.00;100941.41;5021139;28;20143;-58
2023/03/11 07:28:52;;;;;;;8.67;3.70;;;;;;;-1.33;100.00;100948.16;5020772;28;20050;-56
2023/03/11 07:31:22;;;;;;;14.77;3.67;;;;;;;-1.29;100.00;100949.66;5022144;28;20033;-57
2023/03/11 07:33:47;;;;;;;9.80;3.90;;;;;;;-1.20;100.00;100957.91;5022078;28;20057;-58
2023/03/11 07:36:19;;;;;;;15.00;3.70;;;;;;;-1.16;100.00;100949.84;5020340;28;20072;-58
2023/03/11 07:38:45;;;;;;;11.67;4.03;;;;;;;-1.12;100.00;100950.50;5028321;28;20029;-57
2023/03/11 07:41:12;;;;;;;12.20;3.67;;;;;;;-1.07;100.00;100958.91;5022998;28;20129;-58
2023/03/11 07:43:39;;;;;;;11.50;3.90;;;;;;;-1.02;100.00;100946.50;5025137;28;20156;-57
2023/03/11 07:46:07;;;;;;;11.00;4.43;;;;;;;-1.00;100.00;100955.06;5019253;28;20093;-57
2023/03/11 07:48:34;;;;;;;9.93;3.87;;;;;;;-0.90;100.00;100964.97;5020859;28;20061;-57
2023/03/11 07:51:05;;;;;;;14.90;4.40;;;;;;;-0.81;100.00;100956.66;5015695;28;20552;-58
2023/03/11 07:53:31;;;;;;;8.53;4.03;;;;;;;-0.72;100.00;100966.56;5018739;28;20034;-58
2023/03/11 07:55:58;;;;;;;7.63;3.97;;;;;;;-0.68;99.34;100973.25;5015459;28;20033;-57
2023/03/11 07:58:23;;;;;;;12.70;4.10;;;;;;;-0.62;99.32;100973.84;5018211;28;20041;-57
2023/03/11 08:00:49;;;;;;;11.73;3.80;;;;;;;-0.56;99.15;100978.72;5018949;28;20025;-57
2023/03/11 08:03:14;;;;;;;11.17;4.17;;;;;;;-0.51;99.48;100976.69;5018825;28;20036;-58
2023/03/11 08:05:39;;;;;;;14.67;4.60;;;;;;;-0.44;99.42;100980.63;5019467;28;20033;-58
2023/03/11 08:08:05;;;;;;;12.33;4.10;;;;;;;-0.38;98.62;100976.00;5016727;28;20029;-59
2023/03/11 08:10:30;;;;;;;15.10;3.90;;;;;;;-0.30;97.20;100979.03;5017197;28;20515;-57
2023/03/11 08:12:55;;;;;;;8.50;3.50;;;;;;;-0.28;96.75;100983.22;5016586;28;20083;-58
2023/03/11 08:15:20;;;;;;;10.23;4.30;;;;;;;-0.22;96.68;100986.41;5015087;28;20173;-57
2023/03/11 08:17:46;;;;;;;9.83;3.73;;;;;;;-0.15;97.15;100985.16;5020708;28;20018;-59
2023/03/11 08:20:11;;;;;;;11.40;3.77;;;;;;;-0.07;96.24;100984.69;5015390;28;20080;-57
2023/03/11 08:22:37;;;;;;;12.87;3.57;;;;;;;-0.01;94.06;100985.19;5018359;28;20079;-61
2023/03/11 08:25:02;;;;;;;12.23;3.80;;;;;;;0.06;95.55;100982.22;5018869;28;20053;-57
2023/03/11 08:27:28;;;;;;;11.73;3.60;;;;;;;0.15;96.28;100983.44;5018001;28;20030;-58
2023/03/11 08:29:53;;;;;;;13.70;3.70;;;;;;;0.21;94.79;100986.53;5022191;28;20029;-59
2023/03/11 08:32:18;;;;;;;9.13;3.17;;;;;;;0.29;93.33;100991.28;5019564;28;20045;-59
2023/03/11 08:34:44;;;;;;;6.63;3.07;;;;;;;0.37;91.96;100989.09;5017875;28;20025;-58
2023/03/11 08:37:09;;;;;;;8.47;3.03;;;;;;;0.46;90.51;100992.06;5024089;28;20487;-58
2023/03/11 08:39:34;;;;;;;7.00;2.77;;;;;;;0.52;89.19;100991.69;5020646;28;20036;-58
2023/03/11 08:42:01;;;;;;;10.23;2.80;;;;;;;0.59;88.52;100998.22;5029243;28;20108;-58
2023/03/11 08:44:27;;;;;;;15.47;3.07;;;;;;;0.68;87.67;101006.44;5018517;28;20064;-58
2023/03/11 08:46:52;;;;;;;8.47;2.80;;;;;;;0.75;86.88;101005.13;5023043;28;20061;-59
2023/03/11 08:49:17;;;;;;;11.77;2.93;;;;;;;0.85;85.34;101002.78;5019785;28;20073;-58
2023/03/11 08:51:43;;;;;;;8.63;2.57;;;;;;;0.91;85.04;101008.50;5023678;28;20038;-58
2023/03/11 08:54:08;;;;;;;8.43;2.70;;;;;;;0.90;84.02;101006.78;5021551;28;20063;-58
2023/03/11 08:56:33;;;;;;;11.80;2.50;;;;;;;0.97;84.47;101011.63;5025297;28;20465;-59
2023/03/11 08:58:59;;;;;;;8.73;2.60;;;;;;;1.02;83.19;101014.81;5023582;28;20091;-58
2023/03/11 09:01:24;;;;;;;7.87;2.33;;;;;;;1.06;82.39;101027.59;5024345;28;21390;-59
2023/03/11 09:03:50;;;;;;;9.80;2.40;;;;;;;1.10;83.05;101024.78;5020266;28;20041;-58
2023/03/11 09:06:16;;;;;;;8.93;2.40;;;;;;;1.12;80.24;101031.59;5018872;28;20605;-58
2023/03/11 09:08:43;;;;;;;6.23;2.13;;;;;;;1.16;80.75;101022.63;5019322;28;20108;-59
2023/03/11 09:11:09;;;;;;;7.97;2.00;;;;;;;1.20;80.42;101018.88;5021649;28;20088;-58
2023/03/11 09:13:35;;;;;;;7.47;2.20;;;;;;;1.28;80.07;101021.03;5023724;28;20104;-59
2023/03/11 09:16:01;;;;;;;12.53;2.40;;;;;;;1.34;75.94;101025.03;5025907;28;20096;-57
2023/03/11 09:18:28;;;;;;;7.70;1.90;;;;;;;1.37;76.63;101032.66;5016382;28;20029;-58
2023/03/11 09:20:57;;;;;;;5.23;1.80;;;;;;;1.45;76.24;101030.44;5020412;28;20033;-58
2023/03/11 09:23:22;;;;;;;7.90;1.83;;;;;;;1.51;72.53;101037.03;5021150;28;20037;-59
2023/03/11 09:25:47;;;;;;;8.00;1.73;;;;;;;1.58;73.38;101037.50;5018638;28;20038;-58
2023/03/11 09:28:13;;;;;;;4.57;1.67;;;;;;;1.63;73.43;101035.41;5021279;28;20388;-58
2023/03/11 09:30:38;;;;;;;6.27;1.70;;;;;;;1.69;75.41;101040.25;5021404;28;20029;-58
2023/03/11 09:33:03;;;;;;;4.07;1.70;;;;;;;1.70;74.19;101041.06;5016907;28;20025;-58
2023/03/11 09:35:29;;;;;;;3.60;1.70;;;;;;;1.73;73.67;101052.19;5023396;28;20401;-58
2023/03/11 09:37:54;;;;;;;10.00;1.77;;;;;;;1.81;71.79;101048.22;5019332;28;20049;-58
2023/03/11 09:40:22;;;;;;;5.63;1.87;;;;;;;1.83;71.79;101041.13;5021257;28;20892;-58
2023/03/11 09:42:53;;;;;;;8.30;2.10;;;;;;;1.93;72.36;101036.16;5019898;28;20030;-58
2023/03/11 09:45:23;;;;;;;4.67;1.70;;;;;;;2.03;71.11;101041.63;5021996;28;20026;-59
2023/03/11 09:48:17;;;;;;;10.50;2.07;;;;;;;2.15;71.50;101035.56;5027732;28;20045;-57
2023/03/11 09:50:52;;;;;;;7.50;2.10;;;;;;;2.32;72.05;101046.69;5030722;28;20041;-57
2023/03/11 09:53:48;;;;;;;5.17;1.70;;;;;;;2.39;66.22;101040.97;5032162;28;20029;-58
2023/03/11 09:56:17;;;;;;;6.43;2.10;;;;;;;2.32;61.26;101047.53;5022316;28;20041;-59
2023/03/11 09:58:49;;;;;;;4.60;1.70;;;;;;;2.37;67.69;101031.53;5028378;28;20493;-58
2023/03/11 10:01:41;;;;;;;5.57;1.33;;;;;;;2.46;66.05;101043.97;5030757;28;20087;-59
2023/03/11 10:04:09;;;;;;;9.40;1.90;;;;;;;2.55;67.33;101043.38;5033970;28;20029;-58
2023/03/11 10:06:35;;;;;;;7.03;1.60;;;;;;;2.60;67.14;101043.06;5027192;28;20505;-57
2023/03/11 10:09:34;;;;;;;5.30;1.77;;;;;;;2.59;67.47;101037.91;5025652;28;20029;-59
2023/03/11 10:12:12;;;;;;;5.57;1.80;;;;;;;2.55;68.75;101040.75;5022726;28;20056;-58
2023/03/11 10:15:04;;;;;;;4.82;1.48;;;;;;;2.54;68.86;101046.94;5030056;28;20029;-58
2023/03/11 10:17:47;;;;;;;4.17;1.47;;;;;;;2.52;67.88;101048.81;5016436;28;20042;-59
2023/03/11 10:20:19;;;;;;;5.55;1.60;;;;;;;2.53;67.03;101049.66;5014551;28;20111;-58
2023/03/11 10:23:09;;;;;;;3.87;1.43;;;;;;;2.54;68.02;101056.56;5027863;28;20057;-59
2023/03/11 10:25:55;;;;;;;4.97;1.52;;;;;;;2.50;66.37;101048.09;5025661;28;20026;-58
2023/03/11 10:28:25;;;;;;;5.15;1.60;;;;;;;2.54;66.70;101057.41;5016939;28;20034;-59
2023/03/11 10:30:56;;;;;;;6.50;1.85;;;;;;;2.62;67.80;101061.28;5021096;28;20033;-57
2023/03/11 10:33:45;;;;;;;7.20;1.80;;;;;;;2.81;67.41;101064.31;5022532;28;20041;-58
2023/03/11 10:36:16;;;;;;;8.15;1.90;;;;;;;2.68;65.47;101060.88;5026459;28;20033;-61
2023/03/11 10:38:45;;;;;;;6.25;1.60;;;;;;;2.73;64.26;101068.41;5030023;28;20109;-58
2023/03/11 10:41:25;;;;;;;8.45;2.00;;;;;;;2.73;65.66;101066.63;5024598;28;20045;-60
2023/03/11 10:44:04;;;;;;;2.92;1.65;;;;;;;2.83;66.65;101072.91;5036717;28;20053;-57
2023/03/11 10:46:30;;;;;;;5.28;1.73;;;;;;;2.89;64.24;101071.66;5018555;28;20133;-59
2023/03/11 10:48:56;;;;;;;7.05;1.92;;;;;;;2.90;64.46;101078.56;5030118;28;20121;-59
2023/03/11 10:51:25;;;;;;;5.63;1.80;;;;;;;2.86;61.10;101071.03;5027498;28;20065;-58
2023/03/11 10:53:59;;;;;;;9.48;2.10;;;;;;;2.91;64.46;101068.94;5044648;28;20025;-59
2023/03/11 10:56:34;;;;;;;10.10;1.90;;;;;;;2.96;63.21;101072.06;5033322;28;20059;-58
2023/03/11 10:59:03;;;;;;;7.68;1.70;;;;;;;2.93;65.51;101069.66;5029755;28;20034;-58
2023/03/11 11:01:29;;;;;;;7.30;1.60;;;;;;;3.01;64.33;101069.97;5025927;28;20108;-58
2023/03/11 11:03:57;;;;;;;7.28;1.63;;;;;;;3.05;63.13;101062.72;5023996;28;20469;-58
2023/03/11 11:06:34;;;;;;;5.97;1.50;;;;;;;3.19;62.39;101067.00;5034914;28;20037;-57
2023/03/11 11:09:14;;;;;;;7.15;1.88;;;;;;;3.14;60.81;101063.88;5027049;28;20543;-58
2023/03/11 11:11:42;;;;;;;7.65;1.95;;;;;;;3.08;60.61;101068.63;5024611;28;20046;-58
2023/03/11 11:14:09;;;;;;;6.28;1.83;;;;;;;3.13;62.27;101067.44;5020896;28;20033;-59
2023/03/11 11:16:35;;;;;;;5.15;1.88;;;;;;;3.21;61.82;101065.13;5028359;28;20029;-59
2023/03/11 11:19:06;;;;;;;3.42;1.58;;;;;;;3.28;61.30;101070.75;5018161;28;20580;-58
2023/03/11 11:21:38;;;;;;;5.25;1.70;;;;;;;3.31;62.61;101075.81;5029728;28;20090;-57